Time;durP1;ratioP1;P1;durP2;ratioP2;P2;SDS_P1;SDS_P2;PMS_P1;PMS_P2;Temp;Humidity;BMP_temperature;BMP_pressure;BME280_temperature;BME280_humidity;BME280_pressure;Samples;Min_cycle;Max_cycle;Signal;HPM_P1;HPM_P2
2023/12/29 00:01:45;;;;;;;;;;;15.70;57.20;;;;;;5093252;28;20339;-66
2023/12/29 00:04:10;;;;;;;;;;;15.70;57.20;;;;;;5094253;28;20433;-67
2023/12/29 00:06:37;;;;;;;;;;;15.70;57.20;;;;;;5093098;28;19920;-66
2023/12/29 00:09:03;;;;;;;;;;;15.70;57.30;;;;;;5092818;28;20200;-68
2023/12/29 00:11:28;;;;;;;;;;;15.70;57.30;;;;;;5093053;28;20241;-68
2023/12/29 00:13:54;;;;;;;;;;;15.70;57.30;;;;;;5094043;28;19924;-68
2023/12/29 00:16:19;;;;;;;;;;;15.70;57.40;;;;;;5093010;28;19924;-69
2023/12/29 00:18:48;;;;;;;;;;;15.70;57.40;;;;;;5092525;28;19920;-69
2023/12/29 00:21:13;;;;;;;;;;;15.60;57.40;;;;;;5092486;28;19924;-68
2023/12/29 00:23:39;;;;;;;;;;;15.60;57.30;;;;;;5092782;28;19927;-69
2023/12/29 00:26:05;;;;;;;;;;;15.70;57.40;;;;;;5094166;28;20372;-67
2023/12/29 00:28:30;;;;;;;;;;;15.60;57.40;;;;;;5092326;28;19924;-68
2023/12/29 00:30:56;;;;;;;;;;;15.60;57.40;;;;;;5092700;28;19966;-67
2023/12/29 00:33:21;;;;;;;;;;;15.60;57.50;;;;;;5092569;28;20287;-68
2023/12/29 00:35:47;;;;;;;;;;;15.60;57.50;;;;;;5092236;28;20290;-69
2023/12/29 00:38:12;;;;;;;;;;;15.60;57.50;;;;;;5092141;28;19923;-69
2023/12/29 00:40:38;;;;;;;;;;;15.60;57.50;;;;;;5092462;28;20408;-69
2023/12/29 00:43:07;;;;;;;;;;;15.60;57.50;;;;;;5092093;28;19924;-69
2023/12/29 00:45:35;;;;;;;;;;;15.60;57.60;;;;;;5092120;28;19920;-69
2023/12/29 00:48:01;;;;;;;;;;;15.60;57.60;;;;;;5093466;28;20315;-68
2023/12/29 00:50:27;;;;;;;;;;;15.60;57.70;;;;;;5091967;28;20580;-69
2023/12/29 00:52:52;;;;;;;;;;;15.60;57.60;;;;;;5091846;28;19926;-68
2023/12/29 00:55:18;;;;;;;;;;;15.60;57.70;;;;;;5091820;28;19920;-67
2023/12/29 00:57:44;;;;;;;;;;;15.60;57.70;;;;;;5092988;28;19931;-68
2023/12/29 01:00:11;;;;;;;;;;;15.60;57.80;;;;;;5091798;28;19920;-67
2023/12/29 01:02:36;;;;;;;;;;;15.50;57.70;;;;;;5092120;28;19973;-69
2023/12/29 01:05:02;;;;;;;;;;;15.60;57.80;;;;;;5092916;28;19919;-68
2023/12/29 01:07:27;;;;;;;;;;;15.50;57.80;;;;;;5091573;28;19928;-69
2023/12/29 01:09:53;;;;;;;;;;;15.50;57.80;;;;;;5092859;28;19920;-69
2023/12/29 01:12:18;;;;;;;;;;;15.50;57.80;;;;;;5091682;28;20387;-69
2023/12/29 01:14:44;;;;;;;;;;;15.50;57.80;;;;;;5091523;28;19924;-69
2023/12/29 01:17:09;;;;;;;;;;;15.50;57.80;;;;;;5092815;28;19920;-69
2023/12/29 01:19:35;;;;;;;;;;;15.50;57.90;;;;;;5092673;28;19927;-69
2023/12/29 01:22:00;;;;;;;;;;;15.50;57.90;;;;;;5074945;28;19920;-71
2023/12/29 01:24:26;;;;;;;;;;;15.60;58.00;;;;;;5091576;28;19926;-69
2023/12/29 01:26:52;;;;;;;;;;;15.60;58.00;;;;;;5092702;28;20001;-69
2023/12/29 01:29:17;;;;;;;;;;;15.50;58.00;;;;;;5092578;28;20331;-69
2023/12/29 01:31:43;;;;;;;;;;;15.50;58.00;;;;;;5091353;28;20007;-68
2023/12/29 01:34:08;;;;;;;;;;;15.50;58.00;;;;;;5092691;28;19920;-67
2023/12/29 01:36:34;;;;;;;;;;;15.50;58.10;;;;;;5091293;28;20010;-71
2023/12/29 01:39:02;;;;;;;;;;;15.50;58.10;;;;;;5092445;28;19920;-69
2023/12/29 01:41:27;;;;;;;;;;;15.50;58.10;;;;;;5091575;28;19966;-67
2023/12/29 01:46:37;;;;;;;;;;;15.50;58.20;;;;;;5110175;27;19916;-69
2023/12/29 01:49:02;;;;;;;;;;;15.40;58.10;;;;;;5108898;28;19927;-69
2023/12/29 01:51:32;;;;;;;;;;;15.40;58.20;;;;;;5109047;28;19972;-69
2023/12/29 01:53:58;;;;;;;;;;;15.40;58.20;;;;;;5108924;28;19920;-67
2023/12/29 01:56:23;;;;;;;;;;;15.40;58.30;;;;;;5109131;28;20276;-69
2023/12/29 01:58:49;;;;;;;;;;;15.40;58.30;;;;;;5108819;28;20035;-67
2023/12/29 02:01:16;;;;;;;;;;;15.40;58.30;;;;;;5108984;28;19981;-68
2023/12/29 02:03:43;;;;;;;;;;;15.40;58.30;;;;;;5108637;28;19920;-68
2023/12/29 02:06:09;;;;;;;;;;;15.40;58.40;;;;;;5108481;28;19927;-69
2023/12/29 02:08:35;;;;;;;;;;;15.40;58.50;;;;;;5108974;28;19920;-69
2023/12/29 02:11:01;;;;;;;;;;;15.40;58.50;;;;;;5108479;28;19920;-69
2023/12/29 02:13:27;;;;;;;;;;;15.40;58.50;;;;;;5108896;28;19973;-69
2023/12/29 02:15:54;;;;;;;;;;;15.40;58.60;;;;;;5109814;28;19927;-69
2023/12/29 02:18:20;;;;;;;;;;;15.30;58.50;;;;;;5108828;28;19924;-70
2023/12/29 02:20:46;;;;;;;;;;;15.30;58.60;;;;;;5108692;28;20280;-68
2023/12/29 02:23:11;;;;;;;;;;;15.40;58.70;;;;;;5108493;28;19927;-69
2023/12/29 02:25:37;;;;;;;;;;;15.30;58.70;;;;;;5108439;28;19930;-69
2023/12/29 02:28:12;;;;;;;;;;;15.30;58.70;;;;;;5108098;28;20357;-69
2023/12/29 02:30:43;;;;;;;;;;;15.30;58.70;;;;;;5108454;28;19920;-68
2023/12/29 02:33:13;;;;;;;;;;;15.30;58.70;;;;;;5108050;28;19931;-67
2023/12/29 02:35:40;;;;;;;;;;;15.30;58.80;;;;;;5108319;28;19927;-68
2023/12/29 02:38:06;;;;;;;;;;;15.30;58.80;;;;;;5109410;28;20327;-67
2023/12/29 02:40:32;;;;;;;;;;;15.30;58.90;;;;;;5108293;28;20003;-69
2023/12/29 02:42:57;;;;;;;;;;;15.30;58.90;;;;;;5108161;28;20386;-68
2023/12/29 02:45:23;;;;;;;;;;;15.30;59.60;;;;;;5107604;28;19975;-67
2023/12/29 02:47:49;;;;;;;;;;;15.30;58.90;;;;;;5107830;28;19931;-69
2023/12/29 02:50:14;;;;;;;;;;;15.20;58.90;;;;;;5109073;28;19920;-70
2023/12/29 02:52:40;;;;;;;;;;;15.30;58.90;;;;;;5107999;28;19962;-69
2023/12/29 02:55:06;;;;;;;;;;;15.30;59.00;;;;;;5107642;28;20310;-67
2023/12/29 02:57:31;;;;;;;;;;;15.30;58.90;;;;;;5097791;28;19920;-67
2023/12/29 02:59:57;;;;;;;;;;;15.20;58.90;;;;;;5095346;28;19972;-67
2023/12/29 03:02:23;;;;;;;;;;;15.30;59.00;;;;;;5094009;28;20280;-69
2023/12/29 03:04:48;;;;;;;;;;;15.30;59.00;;;;;;5094062;28;19928;-67
2023/12/29 03:07:14;;;;;;;;;;;15.30;59.00;;;;;;5095142;28;19926;-69
2023/12/29 03:09:39;;;;;;;;;;;15.20;59.00;;;;;;5095227;28;20381;-67
2023/12/29 03:12:05;;;;;;;;;;;15.30;59.00;;;;;;5094149;28;20002;-68
2023/12/29 03:14:31;;;;;;;;;;;15.20;59.00;;;;;;5094042;28;19920;-69
2023/12/29 03:16:57;;;;;;;;;;;15.20;59.00;;;;;;5094015;28;20404;-69
2023/12/29 03:19:23;;;;;;;;;;;15.20;59.00;;;;;;5093902;28;20432;-69
2023/12/29 03:21:48;;;;;;;;;;;15.20;59.10;;;;;;5093772;28;19977;-68
2023/12/29 03:24:14;;;;;;;;;;;15.20;59.10;;;;;;5094974;28;19924;-67
2023/12/29 03:26:39;;;;;;;;;;;15.20;59.10;;;;;;5093901;28;20402;-69
2023/12/29 03:29:05;;;;;;;;;;;15.20;59.10;;;;;;5094702;28;19961;-68
2023/12/29 03:31:30;;;;;;;;;;;15.20;59.10;;;;;;5093616;28;19955;-71
2023/12/29 03:33:56;;;;;;;;;;;15.20;59.10;;;;;;5093626;28;19927;-69
2023/12/29 03:36:21;;;;;;;;;;;15.20;59.10;;;;;;5095133;28;19924;-69
2023/12/29 03:38:47;;;;;;;;;;;15.20;59.20;;;;;;5093495;28;20011;-69
2023/12/29 03:41:12;;;;;;;;;;;15.20;59.20;;;;;;5093597;28;19920;-69
2023/12/29 03:43:38;;;;;;;;;;;15.20;59.20;;;;;;5093218;28;20440;-69
2023/12/29 03:46:15;;;;;;;;;;;15.20;59.20;;;;;;5094119;28;20388;-68
2023/12/29 03:48:40;;;;;;;;;;;15.20;59.20;;;;;;5093213;28;19920;-68
2023/12/29 03:51:06;;;;;;;;;;;15.10;59.20;;;;;;5094203;28;19927;-69
2023/12/29 03:53:32;;;;;;;;;;;15.20;59.20;;;;;;5093325;28;19927;-70
2023/12/29 03:55:57;;;;;;;;;;;15.20;59.30;;;;;;5092930;28;20053;-67
2023/12/29 03:58:23;;;;;;;;;;;15.20;59.30;;;;;;5093438;28;19972;-68
2023/12/29 04:00:48;;;;;;;;;;;15.10;60.00;;;;;;5094301;28;20010;-68
2023/12/29 04:03:14;;;;;;;;;;;15.20;59.30;;;;;;5094142;28;19920;-68
2023/12/29 04:05:39;;;;;;;;;;;15.30;59.50;;;;;;5092820;28;19924;-69
2023/12/29 04:08:05;;;;;;;;;;;15.70;59.00;;;;;;5092008;28;20601;-69
2023/12/29 04:10:30;;;;;;;;;;;16.10;57.80;;;;;;5092609;28;19920;-69
2023/12/29 04:12:56;;;;;;;;;;;16.60;56.70;;;;;;5094096;28;20003;-69
2023/12/29 04:15:21;;;;;;;;;;;17.30;55.30;;;;;;5092520;28;20482;-69
2023/12/29 04:17:47;;;;;;;;;;;18.10;53.60;;;;;;5092898;28;20030;-69
2023/12/29 04:20:12;;;;;;;;;;;18.80;52.00;;;;;;5093692;28;20355;-69
2023/12/29 04:22:38;;;;;;;;;;;19.60;50.40;;;;;;5092473;28;19931;-69
2023/12/29 04:25:04;;;;;;;;;;;20.30;48.90;;;;;;5092342;28;19970;-68
2023/12/29 04:27:29;;;;;;;;;;;21.00;47.40;;;;;;5092340;28;19927;-69
2023/12/29 04:29:55;;;;;;;;;;;21.60;46.20;;;;;;5092684;28;20006;-69
2023/12/29 04:32:20;;;;;;;;;;;22.10;45.30;;;;;;5092451;28;19920;-70
2023/12/29 04:34:46;;;;;;;;;;;22.50;44.30;;;;;;5092269;28;20406;-67
2023/12/29 04:37:11;;;;;;;;;;;22.90;43.80;;;;;;5092441;28;19927;-68
2023/12/29 04:39:37;;;;;;;;;;;23.20;43.10;;;;;;5093409;28;20551;-69
2023/12/29 04:42:03;;;;;;;;;;;23.40;42.70;;;;;;5092011;28;19924;-68
2023/12/29 04:44:28;;;;;;;;;;;23.50;42.50;;;;;;5093021;28;19955;-67
2023/12/29 04:46:54;;;;;;;;;;;23.50;42.50;;;;;;5092091;28;19973;-68
2023/12/29 04:49:19;;;;;;;;;;;23.40;43.20;;;;;;5093313;28;19923;-69
2023/12/29 04:51:46;;;;;;;;;;;23.30;42.50;;;;;;5093156;28;19973;-68
2023/12/29 04:54:12;;;;;;;;;;;23.20;42.70;;;;;;5091768;28;20006;-67
2023/12/29 04:56:37;;;;;;;;;;;23.10;42.90;;;;;;5091855;28;19999;-67
2023/12/29 04:59:06;;;;;;;;;;;23.00;43.20;;;;;;5092038;28;20016;-68
2023/12/29 05:01:34;;;;;;;;;;;22.80;43.30;;;;;;5091937;28;19943;-67
2023/12/29 05:04:00;;;;;;;;;;;22.70;43.60;;;;;;5091696;28;20452;-68
2023/12/29 05:06:25;;;;;;;;;;;22.50;43.70;;;;;;5092887;28;19920;-68
2023/12/29 05:08:51;;;;;;;;;;;22.30;44.00;;;;;;5092813;28;19924;-69
2023/12/29 05:11:16;;;;;;;;;;;22.20;44.30;;;;;;5091817;28;19924;-68
2023/12/29 05:13:42;;;;;;;;;;;22.00;44.70;;;;;;5091556;28;20386;-69
2023/12/29 05:16:07;;;;;;;;;;;21.80;45.00;;;;;;5091533;28;19927;-68
2023/12/29 05:18:33;;;;;;;;;;;21.60;45.20;;;;;;5091854;28;19920;-69
2023/12/29 05:20:58;;;;;;;;;;;21.40;45.60;;;;;;5091281;28;19924;-68
2023/12/29 05:23:24;;;;;;;;;;;21.20;45.80;;;;;;5091320;28;19927;-68
2023/12/29 05:25:49;;;;;;;;;;;21.00;46.10;;;;;;5091385;28;19934;-68
2023/12/29 05:28:15;;;;;;;;;;;20.90;46.50;;;;;;5092555;28;19931;-68
2023/12/29 05:30:40;;;;;;;;;;;20.70;46.70;;;;;;5092542;28;20028;-68
2023/12/29 05:33:06;;;;;;;;;;;20.50;46.90;;;;;;5091310;28;19970;-70
2023/12/29 05:35:31;;;;;;;;;;;20.40;47.20;;;;;;5091733;28;19985;-67
2023/12/29 05:37:57;;;;;;;;;;;20.30;47.40;;;;;;5091431;28;20406;-68
2023/12/29 05:40:22;;;;;;;;;;;20.10;47.50;;;;;;5091449;28;19923;-68
2023/12/29 05:42:48;;;;;;;;;;;20.00;47.80;;;;;;5092365;28;19920;-67
2023/12/29 05:45:15;;;;;;;;;;;19.90;48.00;;;;;;5090913;28;19973;-68
2023/12/29 05:47:41;;;;;;;;;;;19.80;48.10;;;;;;5091081;28;19920;-67
2023/12/29 05:50:06;;;;;;;;;;;19.70;48.30;;;;;;5091011;28;19927;-67
2023/12/29 05:52:32;;;;;;;;;;;19.60;48.40;;;;;;5092389;28;19920;-69
2023/12/29 05:54:57;;;;;;;;;;;19.60;48.50;;;;;;5091251;28;19924;-68
2023/12/29 05:57:23;;;;;;;;;;;19.40;48.70;;;;;;5092597;28;19942;-69
2023/12/29 05:59:48;;;;;;;;;;;19.40;48.90;;;;;;5092473;28;19924;-68
2023/12/29 06:02:14;;;;;;;;;;;19.40;49.00;;;;;;5091020;28;19920;-68
2023/12/29 06:04:40;;;;;;;;;;;19.30;49.10;;;;;;5091013;28;19924;-67
2023/12/29 06:07:05;;;;;;;;;;;19.20;49.30;;;;;;5092187;28;20325;-68
2023/12/29 06:09:31;;;;;;;;;;;19.10;49.30;;;;;;5090923;28;19926;-68
2023/12/29 06:11:56;;;;;;;;;;;19.00;49.40;;;;;;5090714;28;19920;-67
2023/12/29 06:14:22;;;;;;;;;;;19.00;49.60;;;;;;5090829;28;19975;-69
2023/12/29 06:16:48;;;;;;;;;;;18.90;49.70;;;;;;5091085;28;20311;-69
2023/12/29 06:19:14;;;;;;;;;;;18.80;49.80;;;;;;5091101;28;20374;-68
2023/12/29 06:21:42;;;;;;;;;;;18.80;50.10;;;;;;5091192;28;19920;-69
2023/12/29 06:24:07;;;;;;;;;;;18.70;50.20;;;;;;5091115;28;19920;-68
2023/12/29 06:26:33;;;;;;;;;;;18.60;50.20;;;;;;5090667;28;20347;-67
2023/12/29 06:28:58;;;;;;;;;;;18.60;50.40;;;;;;5092158;28;19924;-68
2023/12/29 06:31:24;;;;;;;;;;;18.50;50.50;;;;;;5091364;28;20355;-68
2023/12/29 06:33:50;;;;;;;;;;;18.40;50.60;;;;;;5094553;28;19927;-67
2023/12/29 06:36:16;;;;;;;;;;;18.40;50.70;;;;;;5094464;28;19973;-67
2023/12/29 06:38:41;;;;;;;;;;;18.30;50.80;;;;;;5094645;28;19920;-68
2023/12/29 06:41:07;;;;;;;;;;;18.30;51.00;;;;;;5094669;28;20014;-68
2023/12/29 06:43:33;;;;;;;;;;;18.20;51.10;;;;;;5094663;28;19920;-69
2023/12/29 06:45:59;;;;;;;;;;;18.20;51.20;;;;;;5094237;28;19928;-68
2023/12/29 06:48:24;;;;;;;;;;;18.10;51.30;;;;;;5095755;28;20379;-69
2023/12/29 06:50:50;;;;;;;;;;;18.10;51.50;;;;;;5094648;28;20343;-68
2023/12/29 06:53:16;;;;;;;;;;;18.00;52.30;;;;;;5095554;28;19920;-67
2023/12/29 06:55:41;;;;;;;;;;;18.00;51.70;;;;;;5095390;28;19962;-67
2023/12/29 06:58:07;;;;;;;;;;;17.90;51.70;;;;;;5095460;28;19924;-68
2023/12/29 07:00:33;;;;;;;;;;;17.90;51.90;;;;;;5094342;28;20261;-68
2023/12/29 07:03:00;;;;;;;;;;;17.80;51.90;;;;;;5094283;28;19928;-67
2023/12/29 07:05:26;;;;;;;;;;;17.80;52.00;;;;;;5095437;28;19931;-68
2023/12/29 07:07:51;;;;;;;;;;;17.80;52.80;;;;;;5093963;28;19921;-68
2023/12/29 07:10:17;;;;;;;;;;;17.70;52.10;;;;;;5095513;28;19920;-68
2023/12/29 07:12:42;;;;;;;;;;;17.70;52.20;;;;;;5094215;28;20370;-67
2023/12/29 07:15:08;;;;;;;;;;;17.60;52.30;;;;;;5093931;28;20030;-68
2023/12/29 07:17:34;;;;;;;;;;;17.60;52.50;;;;;;5094179;28;20324;-68
2023/12/29 07:20:02;;;;;;;;;;;17.50;52.50;;;;;;5094312;28;20436;-68
2023/12/29 07:22:28;;;;;;;;;;;17.50;52.60;;;;;;5093650;28;19927;-68
2023/12/29 07:24:53;;;;;;;;;;;17.40;52.70;;;;;;5093855;28;19924;-67
2023/12/29 07:27:19;;;;;;;;;;;17.40;52.90;;;;;;5093527;28;20378;-68
2023/12/29 07:29:44;;;;;;;;;;;17.40;53.00;;;;;;5093815;28;20008;-68
2023/12/29 07:32:10;;;;;;;;;;;17.30;53.10;;;;;;5093456;28;19973;-68
2023/12/29 07:34:36;;;;;;;;;;;17.30;53.20;;;;;;5093707;28;19973;-67
2023/12/29 07:37:01;;;;;;;;;;;17.20;53.30;;;;;;5093665;28;20318;-67
2023/12/29 07:39:27;;;;;;;;;;;17.10;53.30;;;;;;5093344;28;19966;-67
2023/12/29 07:41:53;;;;;;;;;;;17.10;53.50;;;;;;5093773;28;20010;-68
2023/12/29 07:44:18;;;;;;;;;;;17.10;53.60;;;;;;5092769;28;19924;-68
2023/12/29 07:46:44;;;;;;;;;;;17.10;53.80;;;;;;5093361;28;19924;-67
2023/12/29 07:49:12;;;;;;;;;;;17.00;54.60;;;;;;5093351;28;20343;-68
2023/12/29 07:51:42;;;;;;;;;;;17.00;53.90;;;;;;5093530;28;20007;-68
2023/12/29 07:54:08;;;;;;;;;;;16.90;54.00;;;;;;5093198;28;19932;-68
2023/12/29 07:56:34;;;;;;;;;;;16.90;54.10;;;;;;5093506;28;19919;-68
2023/12/29 07:58:59;;;;;;;;;;;16.90;54.20;;;;;;5092766;28;19927;-67
2023/12/29 08:01:25;;;;;;;;;;;16.80;54.30;;;;;;5092967;28;19920;-68
2023/12/29 08:03:51;;;;;;;;;;;16.70;54.40;;;;;;5094061;28;19927;-68
2023/12/29 08:06:16;;;;;;;;;;;16.70;55.30;;;;;;5092930;28;19920;-68
2023/12/29 08:08:42;;;;;;;;;;;16.70;54.60;;;;;;5092725;28;19932;-68
2023/12/29 08:11:16;;;;;;;;;;;16.70;54.70;;;;;;5092699;28;19924;-67
2023/12/29 08:13:43;;;;;;;;;;;16.60;54.90;;;;;;5093875;28;19927;-68
2023/12/29 08:16:11;;;;;;;;;;;16.50;55.00;;;;;;5092896;28;19924;-68
2023/12/29 08:18:37;;;;;;;;;;;16.40;55.20;;;;;;5092457;28;19927;-69
2023/12/29 08:21:03;;;;;;;;;;;16.50;55.30;;;;;;5092835;28;20014;-69
2023/12/29 08:23:31;;;;;;;;;;;16.40;55.50;;;;;;5092696;28;20439;-69
2023/12/29 08:25:58;;;;;;;;;;;16.40;55.60;;;;;;5092374;28;19920;-69
2023/12/29 08:28:23;;;;;;;;;;;16.40;56.40;;;;;;5092477;28;19924;-69
2023/12/29 08:30:49;;;;;;;;;;;16.30;55.70;;;;;;5093767;28;19926;-69
2023/12/29 08:33:15;;;;;;;;;;;16.30;55.80;;;;;;5093554;28;19920;-70
2023/12/29 08:35:44;;;;;;;;;;;16.30;55.80;;;;;;5093407;28;19943;-69
2023/12/29 08:38:09;;;;;;;;;;;16.30;55.90;;;;;;5093492;28;19978;-70
2023/12/29 08:40:35;;;;;;;;;;;16.30;55.90;;;;;;5093364;28;20387;-69
2023/12/29 08:43:01;;;;;;;;;;;16.30;55.90;;;;;;5092051;28;19963;-69
2023/12/29 08:45:27;;;;;;;;;;;16.30;56.10;;;;;;5091752;28;20398;-68
2023/12/29 08:47:54;;;;;;;;;;;16.20;56.00;;;;;;5074988;28;19927;-69
2023/12/29 08:50:19;;;;;;;;;;;16.30;56.10;;;;;;5091882;28;19920;-70
2023/12/29 08:52:45;;;;;;;;;;;16.30;56.10;;;;;;5092392;28;19920;-69
2023/12/29 08:55:10;;;;;;;;;;;16.30;56.20;;;;;;5091316;28;19927;-70
2023/12/29 08:57:36;;;;;;;;;;;16.30;56.10;;;;;;5091927;28;19927;-69
2023/12/29 09:00:02;;;;;;;;;;;16.30;56.20;;;;;;5091670;28;19927;-68
2023/12/29 09:02:28;;;;;;;;;;;16.20;56.20;;;;;;5093274;28;19920;-67
2023/12/29 09:04:53;;;;;;;;;;;16.20;56.20;;;;;;5091863;28;20322;-68
2023/12/29 09:07:22;;;;;;;;;;;16.20;56.30;;;;;;5092909;28;19934;-68
2023/12/29 09:09:47;;;;;;;;;;;16.20;56.30;;;;;;5092907;28;19920;-68
2023/12/29 09:12:16;;;;;;;;;;;16.20;56.40;;;;;;5091892;28;19970;-68
2023/12/29 09:14:41;;;;;;;;;;;16.20;56.40;;;;;;5091526;28;19920;-69
2023/12/29 09:17:10;;;;;;;;;;;16.20;56.50;;;;;;5091430;28;19982;-70
2023/12/29 09:19:36;;;;;;;;;;;16.10;56.50;;;;;;5092728;28;20018;-69
2023/12/29 09:22:01;;;;;;;;;;;16.10;56.50;;;;;;5091346;28;20010;-68
2023/12/29 09:24:27;;;;;;;;;;;16.10;56.50;;;;;;5091655;28;19920;-68
2023/12/29 09:26:54;;;;;;;;;;;16.10;56.60;;;;;;5091698;28;20336;-67
2023/12/29 09:29:19;;;;;;;;;;;16.10;56.60;;;;;;5091568;28;19920;-68
2023/12/29 09:31:45;;;;;;;;;;;16.10;56.60;;;;;;5091698;28;19920;-68
2023/12/29 09:34:10;;;;;;;;;;;16.10;56.70;;;;;;5092648;28;20298;-69
2023/12/29 09:36:36;;;;;;;;;;;16.00;56.70;;;;;;5093137;28;19920;-68
2023/12/29 09:39:02;;;;;;;;;;;16.10;56.80;;;;;;5092116;28;19920;-68
2023/12/29 09:41:30;;;;;;;;;;;16.10;56.80;;;;;;5092749;28;19920;-68
2023/12/29 09:43:57;;;;;;;;;;;16.00;56.80;;;;;;5090559;28;20007;-68
2023/12/29 09:46:24;;;;;;;;;;;16.00;56.90;;;;;;5090835;28;19924;-68
2023/12/29 09:48:52;;;;;;;;;;;16.00;57.00;;;;;;5091331;28;19920;-68
2023/12/29 09:51:22;;;;;;;;;;;16.00;57.10;;;;;;5089003;28;19920;-67
2023/12/29 09:53:48;;;;;;;;;;;16.00;57.30;;;;;;5091416;28;19982;-67
2023/12/29 09:56:14;;;;;;;;;;;16.00;57.50;;;;;;5082568;28;20383;-68
2023/12/29 09:58:40;;;;;;;;;;;16.00;57.50;;;;;;5080571;28;19927;-66
2023/12/29 10:01:06;;;;;;;;;;;16.00;57.80;;;;;;5092344;28;20378;-68
2023/12/29 10:03:32;;;;;;;;;;;16.10;58.00;;;;;;5082861;28;19920;-69
2023/12/29 10:06:00;;;;;;;;;;;16.00;58.00;;;;;;5073478;28;19931;-64
2023/12/29 10:08:29;;;;;;;;;;;16.10;58.20;;;;;;5074344;28;19963;-71
2023/12/29 10:10:57;;;;;;;;;;;16.00;58.20;;;;;;5075262;28;19981;-68
2023/12/29 10:13:23;;;;;;;;;;;16.00;58.40;;;;;;5085300;28;20020;-69
2023/12/29 10:16:08;;;;;;;;;;;16.00;58.40;;;;;;5077138;28;19978;-68
2023/12/29 10:18:38;;;;;;;;;;;16.00;58.40;;;;;;5074539;28;19920;-69
2023/12/29 10:21:12;;;;;;;;;;;15.90;58.60;;;;;;5076119;28;20278;-68
2023/12/29 10:23:40;;;;;;;;;;;15.90;58.60;;;;;;5074531;28;19974;-68
2023/12/29 10:26:07;;;;;;;;;;;15.90;58.70;;;;;;5074450;28;19924;-69
2023/12/29 10:28:33;;;;;;;;;;;15.90;58.70;;;;;;5075102;28;20019;-69
2023/12/29 10:30:59;;;;;;;;;;;15.80;58.70;;;;;;5074595;28;20464;-69
2023/12/29 10:33:25;;;;;;;;;;;15.80;58.70;;;;;;5075710;28;19924;-68
2023/12/29 10:36:02;;;;;;;;;;;15.80;58.70;;;;;;5074694;28;19974;-68
2023/12/29 10:38:27;;;;;;;;;;;15.70;58.60;;;;;;5074886;28;19928;-68
2023/12/29 10:40:53;;;;;;;;;;;15.80;58.70;;;;;;5074385;28;20280;-68
2023/12/29 10:43:23;;;;;;;;;;;16.20;58.80;;;;;;5057744;28;20391;-68
2023/12/29 10:45:48;;;;;;;;;;;16.60;57.80;;;;;;5075508;28;19928;-69
2023/12/29 10:48:24;;;;;;;;;;;17.00;56.60;;;;;;5074470;28;19920;-68
2023/12/29 10:50:50;;;;;;;;;;;17.60;55.30;;;;;;5075356;28;19968;-68
2023/12/29 10:53:18;;;;;;;;;;;18.40;53.70;;;;;;5075054;28;19967;-68
2023/12/29 10:55:44;;;;;;;;;;;19.10;52.20;;;;;;5074256;28;19927;-68
2023/12/29 10:58:10;;;;;;;;;;;19.90;50.50;;;;;;5073903;28;19921;-68
2023/12/29 11:00:35;;;;;;;;;;;20.60;49.10;;;;;;5074304;28;19927;-68
2023/12/29 11:03:01;;;;;;;;;;;21.30;47.60;;;;;;5074398;28;20421;-68
2023/12/29 11:05:27;;;;;;;;;;;21.90;46.50;;;;;;5074083;28;19930;-69
2023/12/29 11:07:54;;;;;;;;;;;22.30;45.30;;;;;;5075426;28;19920;-68
2023/12/29 11:10:21;;;;;;;;;;;22.90;44.30;;;;;;5074210;28;19930;-70
2023/12/29 11:12:47;;;;;;;;;;;23.30;43.60;;;;;;5074995;28;20371;-68
2023/12/29 11:15:14;;;;;;;;;;;23.60;43.00;;;;;;5074799;28;20371;-68
2023/12/29 11:17:41;;;;;;;;;;;23.80;42.80;;;;;;5073471;28;19921;-69
2023/12/29 11:20:06;;;;;;;;;;;23.90;42.20;;;;;;5074723;28;20411;-68
2023/12/29 11:22:32;;;;;;;;;;;24.00;42.10;;;;;;5074791;28;19927;-68
2023/12/29 11:24:59;;;;;;;;;;;24.00;42.10;;;;;;5074525;28;19925;-68
2023/12/29 11:27:27;;;;;;;;;;;23.90;42.30;;;;;;5073688;28;19927;-68
2023/12/29 11:29:54;;;;;;;;;;;23.80;42.50;;;;;;5074673;28;19928;-68
2023/12/29 11:32:22;;;;;;;;;;;23.60;42.60;;;;;;5073549;28;20303;-68
2023/12/29 11:34:51;;;;;;;;;;;23.50;42.70;;;;;;5074586;28;19974;-68
2023/12/29 11:40:16;;;;;;;;;;;23.20;43.30;;;;;;5110196;27;19916;-69
2023/12/29 11:42:43;;;;;;;;;;;23.00;43.40;;;;;;5108866;28;19974;-69
2023/12/29 11:45:29;;;;;;;;;;;22.90;43.70;;;;;;5109270;28;19926;-69
2023/12/29 11:47:56;;;;;;;;;;;22.60;44.00;;;;;;5108641;28;20383;-68
2023/12/29 11:50:40;;;;;;;;;;;22.40;44.30;;;;;;5109143;28;19924;-69
2023/12/29 11:53:06;;;;;;;;;;;22.30;44.80;;;;;;5110135;28;19965;-67
2023/12/29 11:55:35;;;;;;;;;;;22.00;45.20;;;;;;5109022;28;20414;-67
2023/12/29 11:58:00;;;;;;;;;;;21.70;45.30;;;;;;5109875;28;20394;-69
2023/12/29 12:00:46;;;;;;;;;;;21.60;45.70;;;;;;5109827;28;19955;-70
2023/12/29 12:03:28;;;;;;;;;;;21.40;46.00;;;;;;5109710;28;19926;-68
2023/12/29 12:05:57;;;;;;;;;;;21.20;46.30;;;;;;5108815;28;19924;-69
2023/12/29 12:08:27;;;;;;;;;;;21.10;46.70;;;;;;5108779;28;20302;-67
2023/12/29 12:10:52;;;;;;;;;;;20.90;46.90;;;;;;5109686;28;19919;-69
2023/12/29 12:13:38;;;;;;;;;;;20.80;47.20;;;;;;5108671;28;20428;-69
2023/12/29 12:16:03;;;;;;;;;;;20.70;47.30;;;;;;5109443;28;19920;-69
2023/12/29 12:18:29;;;;;;;;;;;20.50;47.40;;;;;;5108544;28;20022;-71
2023/12/29 12:20:55;;;;;;;;;;;20.40;47.70;;;;;;5109595;28;20326;-69
2023/12/29 12:23:22;;;;;;;;;;;20.30;47.80;;;;;;5109522;28;20023;-69
2023/12/29 12:25:49;;;;;;;;;;;20.20;48.00;;;;;;5108460;28;20154;-68
2023/12/29 12:28:15;;;;;;;;;;;20.10;48.10;;;;;;5108016;28;19920;-69
2023/12/29 12:30:41;;;;;;;;;;;20.00;48.30;;;;;;5108040;28;19927;-69
2023/12/29 12:33:09;;;;;;;;;;;19.90;48.50;;;;;;5109368;28;19920;-70
2023/12/29 12:35:34;;;;;;;;;;;19.80;48.60;;;;;;5107810;28;20294;-68
2023/12/29 12:38:09;;;;;;;;;;;19.70;48.90;;;;;;5107128;28;19932;-71
2023/12/29 12:40:34;;;;;;;;;;;19.50;49.10;;;;;;5093101;27;19952;-71
2023/12/29 12:43:00;;;;;;;;;;;19.40;49.50;;;;;;5110608;28;19919;-69
2023/12/29 12:45:27;;;;;;;;;;;19.10;49.90;;;;;;5129537;28;19927;-70
2023/12/29 12:47:59;;;;;;;;;;;19.00;50.40;;;;;;5127214;28;19924;-69
2023/12/29 12:50:24;;;;;;;;;;;18.80;50.80;;;;;;5102168;28;19969;-67
2023/12/29 12:52:52;;;;;;;;;;;18.70;51.10;;;;;;5096417;28;19915;-67
2023/12/29 12:55:18;;;;;;;;;;;18.70;51.30;;;;;;5114126;28;19951;-68
2023/12/29 12:57:44;;;;;;;;;;;18.70;51.40;;;;;;5097055;28;19961;-67
2023/12/29 13:00:09;;;;;;;;;;;18.70;51.30;;;;;;5132034;27;19917;-67
2023/12/29 13:02:35;;;;;;;;;;;18.70;51.40;;;;;;5097536;28;19922;-68
2023/12/29 13:05:05;;;;;;;;;;;18.70;51.30;;;;;;5115598;28;19967;-66
2023/12/29 13:07:31;;;;;;;;;;;18.70;51.30;;;;;;5097537;28;19916;-67
2023/12/29 13:09:56;;;;;;;;;;;18.60;51.30;;;;;;5097192;28;19923;-68
2023/12/29 13:12:23;;;;;;;;;;;18.60;51.30;;;;;;5097492;28;19916;-67
2023/12/29 13:14:49;;;;;;;;;;;18.60;51.40;;;;;;5115723;28;19916;-69
2023/12/29 13:17:16;;;;;;;;;;;18.50;51.40;;;;;;5097087;28;20359;-69
2023/12/29 13:19:43;;;;;;;;;;;18.50;51.40;;;;;;5096854;28;19924;-68
2023/12/29 13:22:09;;;;;;;;;;;18.50;51.40;;;;;;5115387;28;20416;-68
2023/12/29 13:24:36;;;;;;;;;;;18.40;51.50;;;;;;5096773;28;19923;-68
2023/12/29 13:27:05;;;;;;;;;;;18.40;51.60;;;;;;5115410;28;20003;-68
2023/12/29 13:29:30;;;;;;;;;;;18.30;51.60;;;;;;5096975;28;19916;-69
2023/12/29 13:32:16;;;;;;;;;;;18.30;51.60;;;;;;5115340;28;20415;-68
2023/12/29 13:37:37;;;;;;;;;;;18.20;51.60;;;;;;5110429;27;19919;-68
2023/12/29 13:40:09;;;;;;;;;;;18.10;51.60;;;;;;5109409;28;20041;-68
2023/12/29 13:42:36;;;;;;;;;;;18.10;51.80;;;;;;5109085;28;19915;-68
2023/12/29 13:45:03;;;;;;;;;;;18.10;51.90;;;;;;5108872;28;19926;-68
2023/12/29 13:47:29;;;;;;;;;;;18.00;51.90;;;;;;5092340;28;20409;-68
2023/12/29 13:49:55;;;;;;;;;;;18.00;52.00;;;;;;5109912;28;19959;-68
2023/12/29 13:52:20;;;;;;;;;;;17.90;52.10;;;;;;5109247;28;19923;-68
2023/12/29 13:54:46;;;;;;;;;;;17.90;52.20;;;;;;5108824;28;20272;-68
2023/12/29 13:57:12;;;;;;;;;;;17.80;52.20;;;;;;5108615;28;19972;-68
2023/12/29 13:59:38;;;;;;;;;;;17.80;52.30;;;;;;5108969;28;20007;-68
2023/12/29 14:02:18;;;;;;;;;;;17.70;52.30;;;;;;5108745;28;19960;-68
2023/12/29 14:04:45;;;;;;;;;;;17.70;52.50;;;;;;5108820;28;19955;-68
2023/12/29 14:07:13;;;;;;;;;;;17.60;52.60;;;;;;5109086;28;19969;-68
2023/12/29 14:09:42;;;;;;;;;;;17.60;52.70;;;;;;5110012;28;19919;-68
2023/12/29 14:12:08;;;;;;;;;;;17.50;52.70;;;;;;5108676;28;19920;-70
2023/12/29 14:14:34;;;;;;;;;;;17.50;52.80;;;;;;5108796;28;20361;-70
2023/12/29 14:17:00;;;;;;;;;;;17.50;52.90;;;;;;5108306;28;20313;-71
2023/12/29 14:19:26;;;;;;;;;;;17.40;53.00;;;;;;5108249;28;19923;-70
2023/12/29 14:21:53;;;;;;;;;;;17.40;53.10;;;;;;5108322;28;19916;-72